»·PEaware :: N520YK KAMA-KASE

N520YK :: KAMA-KASE

FLIGHT INFORMATION

Flight Status: Arrived
Operator: Privately registered:
United States
More flights under this callsign
Pilot: Chuck O. (4337)
Aircraft: BEECH AIRCRAFT SUPER KING AIR COMMUTER
(BE20)
More flights by this aircraft type
Origin: KAMA Amarillo Intl
United States
Destination: KASE Aspen-Pitkin Co/Sardy
United States
More flights between these airports :: More routes between these airports
Route: PNH J17 PUT BRK V108 LILXO LINDZ
File this flight plan on PilotEdge
Remarks: KASE Roaring Fork Vis R15
Altitude:
(Current/Filed)
340ft
Speed:
(Current/Filed)
280kts
Departed: 15-Sep-17 10:34 AM
Arrived: 15-Sep-17 12:16 PM
Distance/Time
Traveled:
344nm/1:42
Distance/Time
To Go:
Arrived

Flight Plot

Page will automatically refresh every two minutes.

Flight plan parsing failed; only flown route is shown


Map Options




Map Legend


Flown Route
Filed Route
Departure Airport
Arrival Airport
Navaid (VOR, NDB)
Fix

Horizontal Profiles

Position Reports

Time Latitude Longitude Heading Altitude Ground
Speed
15-Sep-17 10:18 35.219206 -101.707545 136 3611ft 0kts
15-Sep-17 10:19 35.219204 -101.707543 136 3611ft 0kts
15-Sep-17 10:20 35.219202 -101.707541 136 3611ft 0kts
15-Sep-17 10:21 35.219200 -101.707539 136 3611ft 0kts
15-Sep-17 10:22 35.219198 -101.707536 136 3611ft 0kts
15-Sep-17 10:23 35.219196 -101.707534 136 3611ft 0kts
15-Sep-17 10:24 35.219194 -101.707532 136 3611ft 0kts
15-Sep-17 10:25 35.219193 -101.707530 136 3611ft 0kts
15-Sep-17 10:26 35.219191 -101.707528 136 3611ft 0kts
15-Sep-17 10:27 35.219189 -101.707525 136 3611ft 0kts
15-Sep-17 10:28 35.219162 -101.707494 136 3611ft 0kts
15-Sep-17 10:29 35.220232 -101.708042 316 3611ft 0kts
15-Sep-17 10:30 35.220274 -101.708063 349 3611ft 1kts
15-Sep-17 10:31 35.220552 -101.707989 19 3611ft 0kts
15-Sep-17 10:32 35.220567 -101.707982 19 3611ft 1kts
15-Sep-17 10:33 35.222071 -101.706378 44 3611ft 10kts
15-Sep-17 10:34 35.226937 -101.701495 44 3611ft 35kts
15-Sep-17 10:35 35.229981 -101.699688 315 3611ft 0kts
15-Sep-17 10:36 35.229983 -101.699690 315 3611ft 0kts
15-Sep-17 10:37 35.229737 -101.701624 225 3611ft 40kts
15-Sep-17 10:38 35.208108 -101.729950 229 4444ft 140kts
15-Sep-17 10:39 35.179530 -101.764677 223 5963ft 158kts
15-Sep-17 10:40 35.146246 -101.802033 223 8118ft 162kts
15-Sep-17 10:41 35.112027 -101.840393 223 9953ft 165kts
15-Sep-17 10:42 35.094521 -101.886868 297 11695ft 182kts
15-Sep-17 10:43 35.148323 -101.901006 353 13013ft 216kts
15-Sep-17 10:44 35.209064 -101.900753 353 14975ft 219kts
15-Sep-17 10:45 35.271449 -101.900118 353 16918ft 232kts
15-Sep-17 10:46 35.344593 -101.900167 354 16996ft 284kts
15-Sep-17 10:47 35.420199 -101.914645 341 18584ft 237kts
15-Sep-17 10:48 35.479527 -101.930438 325 21136ft 204kts
15-Sep-17 10:49 35.526404 -101.967029 314 23045ft 199kts
15-Sep-17 10:50 35.571072 -102.007323 314 24912ft 202kts
15-Sep-17 10:51 35.618182 -102.050161 314 27105ft 212kts
15-Sep-17 10:52 35.665587 -102.093608 313 29293ft 213kts
15-Sep-17 10:53 35.713858 -102.138161 313 31009ft 223kts
15-Sep-17 10:54 35.762992 -102.183455 310 33072ft 214kts
15-Sep-17 10:55 35.811557 -102.228962 310 34010ft 243kts
15-Sep-17 10:56 35.870223 -102.283558 312 33989ft 280kts
15-Sep-17 10:57 35.934821 -102.343080 312 33986ft 295kts
15-Sep-17 10:58 36.001127 -102.404396 313 33988ft 300kts
15-Sep-17 10:59 36.067915 -102.466158 313 33989ft 298kts
15-Sep-17 11:00 36.133968 -102.527657 312 33989ft 297kts
15-Sep-17 11:01 36.199862 -102.589374 312 33990ft 296kts
15-Sep-17 11:02 36.265276 -102.650988 312 33994ft 293kts
15-Sep-17 11:03 36.330096 -102.712111 312 33998ft 292kts
15-Sep-17 11:04 36.394767 -102.773155 312 34003ft 292kts
15-Sep-17 11:05 36.459698 -102.834530 312 34008ft 292kts
15-Sep-17 11:06 36.524445 -102.895857 312 34011ft 293kts
15-Sep-17 11:07 36.589266 -102.957248 313 34012ft 293kts
15-Sep-17 11:08 36.654508 -103.019121 312 33991ft 294kts
15-Sep-17 11:09 36.719521 -103.080997 312 33987ft 294kts
15-Sep-17 11:10 36.784670 -103.143281 312 33983ft 294kts
15-Sep-17 11:11 36.838706 -103.195095 312 33985ft 294kts
15-Sep-17 11:12 36.903591 -103.257382 312 33983ft 294kts
15-Sep-17 11:13 36.968650 -103.319941 312 33982ft 294kts
15-Sep-17 11:14 37.044261 -103.392818 312 33982ft 294kts
15-Sep-17 11:15 37.098330 -103.444949 312 33983ft 294kts
15-Sep-17 11:16 37.163405 -103.507727 311 33986ft 294kts
15-Sep-17 11:17 37.228026 -103.570327 311 33990ft 294kts
15-Sep-17 11:18 37.288275 -103.624672 317 33979ft 300kts
15-Sep-17 11:19 37.359370 -103.680357 317 33964ft 300kts
15-Sep-17 11:20 37.430145 -103.735866 317 33952ft 300kts
15-Sep-17 11:21 37.500707 -103.791659 316 33948ft 300kts
15-Sep-17 11:22 37.571436 -103.847833 316 33945ft 300kts
15-Sep-17 11:23 37.641845 -103.903898 316 33941ft 299kts
15-Sep-17 11:24 37.712112 -103.959993 316 33936ft 299kts
15-Sep-17 11:25 37.782594 -104.016411 316 33931ft 299kts
15-Sep-17 11:26 37.852768 -104.072686 315 33926ft 299kts
15-Sep-17 11:27 37.923192 -104.129312 315 33921ft 299kts
15-Sep-17 11:28 37.993338 -104.185859 315 33916ft 299kts
15-Sep-17 11:29 38.063421 -104.242476 315 33911ft 299kts
15-Sep-17 11:30 38.133725 -104.299285 316 33907ft 299kts
15-Sep-17 11:31 38.203576 -104.355751 315 33914ft 296kts
15-Sep-17 11:32 38.272305 -104.411583 315 33414ft 291kts
15-Sep-17 11:33 38.350858 -104.449663 336 32807ft 312kts
15-Sep-17 11:34 38.435974 -104.474018 337 31845ft 316kts
15-Sep-17 11:35 38.521855 -104.499378 337 30850ft 318kts
15-Sep-17 11:36 38.608442 -104.524923 338 29851ft 319kts
15-Sep-17 11:37 38.694257 -104.551080 337 28860ft 319kts
15-Sep-17 11:38 38.779053 -104.578981 336 27903ft 309kts
15-Sep-17 11:39 38.862506 -104.606598 337 26915ft 310kts
15-Sep-17 11:40 38.940545 -104.644491 301 25913ft 282kts
15-Sep-17 11:41 38.968685 -104.732852 278 24923ft 262kts
15-Sep-17 11:42 38.987919 -104.821653 278 23928ft 256kts
15-Sep-17 11:43 39.007664 -104.909551 279 22923ft 254kts
15-Sep-17 11:44 39.027281 -104.995882 279 22072ft 242kts
15-Sep-17 11:45 39.045033 -105.074339 278 22059ft 220kts
15-Sep-17 11:46 39.061899 -105.150343 278 22114ft 226kts
15-Sep-17 11:47 39.079691 -105.230000 279 22179ft 234kts
15-Sep-17 11:48 39.097963 -105.311204 279 22235ft 237kts
15-Sep-17 11:49 39.115898 -105.391452 279 22274ft 238kts
15-Sep-17 11:50 39.134237 -105.473852 279 22293ft 239kts
15-Sep-17 11:51 39.152448 -105.556254 279 22297ft 239kts
15-Sep-17 11:52 39.170715 -105.639109 279 22287ft 240kts
15-Sep-17 11:53 39.188869 -105.721644 278 22281ft 239kts
15-Sep-17 11:54 39.206954 -105.804152 278 22288ft 239kts
15-Sep-17 11:55 39.224883 -105.886976 278 22290ft 239kts
15-Sep-17 11:56 39.242797 -105.969694 278 22282ft 240kts
15-Sep-17 11:57 39.260702 -106.052541 279 22270ft 239kts
15-Sep-17 11:58 39.278618 -106.135833 279 22069ft 246kts
15-Sep-17 11:59 39.297480 -106.223658 279 21188ft 259kts
15-Sep-17 12:00 39.316855 -106.313488 279 20291ft 260kts
15-Sep-17 12:01 39.334352 -106.395394 279 19475ft 260kts
15-Sep-17 12:02 39.353347 -106.484774 279 18575ft 256kts
15-Sep-17 12:03 39.371972 -106.573611 280 17672ft 254kts
15-Sep-17 12:04 39.390536 -106.661667 280 16773ft 254kts
15-Sep-17 12:05 39.409051 -106.749870 281 15874ft 255kts
15-Sep-17 12:06 39.426009 -106.831186 284 15048ft 257kts
15-Sep-17 12:07 39.452792 -106.916959 304 14169ft 260kts
15-Sep-17 12:08 39.496607 -106.987465 305 14006ft 236kts
15-Sep-17 12:09 39.519364 -107.043141 244 13607ft 158kts
15-Sep-17 12:10 39.490291 -107.085103 217 12630ft 159kts
15-Sep-17 12:11 39.451867 -107.114390 211 11633ft 161kts
15-Sep-17 12:12 39.410034 -107.129561 153 10613ft 176kts
15-Sep-17 12:13 39.381377 -107.081740 124 9619ft 165kts
15-Sep-17 12:14 39.362784 -107.033490 119 9522ft 140kts
15-Sep-17 12:15 39.345429 -106.989387 124 9512ft 137kts
15-Sep-17 12:16 39.325939 -106.947594 134 9502ft 134kts
15-Sep-17 12:17 39.300970 -106.912213 136 9446ft 131kts
15-Sep-17 12:18 39.266989 -106.888480 168 8693ft 132kts
15-Sep-17 12:19 39.234250 -106.874105 160 7927ft 106kts
15-Sep-17 12:20 39.223312 -106.868242 73 7824ft 3kts
15-Sep-17 12:21 39.223557 -106.867910 19 7824ft 0kts
15-Sep-17 12:22 39.223561 -106.867908 19 7824ft 0kts
15-Sep-17 12:23 39.223570 -106.867904 20 7824ft 0kts
15-Sep-17 12:24 39.221529 -106.866173 53 7824ft 6kts
15-Sep-17 12:25 39.222325 -106.866850 250 7824ft 0kts
15-Sep-17 12:26 39.222325 -106.866850 250 7824ft 0kts

Navigation Log

Ident Type
Flight plan parsing failed, navigation log unavailable